sensor_id;sensor_type;location;lat;lon;timestamp;P1;durP1;ratioP1;P2;durP2;ratioP2
7359;SDS011;3720;48.274;7.796;2023-05-02T00:00:52;6.00;;;5.30;;
7359;SDS011;3720;48.274;7.796;2023-05-02T00:03:25;6.95;;;5.80;;
7359;SDS011;3720;48.274;7.796;2023-05-02T00:05:58;6.43;;;5.63;;
7359;SDS011;3720;48.274;7.796;2023-05-02T00:08:30;8.60;;;5.50;;
7359;SDS011;3720;48.274;7.796;2023-05-02T00:11:02;6.95;;;5.40;;
7359;SDS011;3720;48.274;7.796;2023-05-02T00:13:35;5.80;;;5.20;;
7359;SDS011;3720;48.274;7.796;2023-05-02T00:16:07;7.20;;;5.43;;
7359;SDS011;3720;48.274;7.796;2023-05-02T00:18:41;7.13;;;5.47;;
7359;SDS011;3720;48.274;7.796;2023-05-02T00:21:13;6.60;;;5.25;;
7359;SDS011;3720;48.274;7.796;2023-05-02T00:23:45;6.65;;;5.30;;
7359;SDS011;3720;48.274;7.796;2023-05-02T00:26:17;5.75;;;4.95;;
7359;SDS011;3720;48.274;7.796;2023-05-02T00:28:49;5.82;;;4.90;;
7359;SDS011;3720;48.274;7.796;2023-05-02T00:31:21;8.02;;;5.50;;
7359;SDS011;3720;48.274;7.796;2023-05-02T00:33:54;7.40;;;5.70;;
7359;SDS011;3720;48.274;7.796;2023-05-02T00:36:26;6.15;;;5.10;;
7359;SDS011;3720;48.274;7.796;2023-05-02T00:38:58;6.85;;;5.40;;
7359;SDS011;3720;48.274;7.796;2023-05-02T00:41:30;7.70;;;5.30;;
7359;SDS011;3720;48.274;7.796;2023-05-02T00:44:01;7.22;;;6.00;;
7359;SDS011;3720;48.274;7.796;2023-05-02T00:46:33;6.10;;;5.22;;
7359;SDS011;3720;48.274;7.796;2023-05-02T00:49:07;6.10;;;5.40;;
7359;SDS011;3720;48.274;7.796;2023-05-02T00:51:39;6.10;;;5.43;;
7359;SDS011;3720;48.274;7.796;2023-05-02T00:54:11;5.85;;;5.25;;
7359;SDS011;3720;48.274;7.796;2023-05-02T00:56:43;6.53;;;5.40;;
7359;SDS011;3720;48.274;7.796;2023-05-02T00:59:15;6.65;;;5.53;;
7359;SDS011;3720;48.274;7.796;2023-05-02T01:01:50;6.72;;;5.32;;
7359;SDS011;3720;48.274;7.796;2023-05-02T01:04:33;11.30;;;5.32;;
7359;SDS011;3720;48.274;7.796;2023-05-02T01:07:16;7.00;;;5.50;;
7359;SDS011;3720;48.274;7.796;2023-05-02T01:10:00;6.13;;;5.35;;
7359;SDS011;3720;48.274;7.796;2023-05-02T01:12:45;7.13;;;5.38;;
7359;SDS011;3720;48.274;7.796;2023-05-02T01:15:22;6.50;;;5.78;;
7359;SDS011;3720;48.274;7.796;2023-05-02T01:17:55;6.28;;;5.60;;
7359;SDS011;3720;48.274;7.796;2023-05-02T01:20:32;7.78;;;5.15;;
7359;SDS011;3720;48.274;7.796;2023-05-02T01:23:11;5.68;;;5.05;;
7359;SDS011;3720;48.274;7.796;2023-05-02T01:25:55;5.82;;;5.22;;
7359;SDS011;3720;48.274;7.796;2023-05-02T01:28:53;8.45;;;5.30;;
7359;SDS011;3720;48.274;7.796;2023-05-02T01:31:29;7.65;;;6.03;;
7359;SDS011;3720;48.274;7.796;2023-05-02T01:34:03;6.15;;;5.55;;
7359;SDS011;3720;48.274;7.796;2023-05-02T01:36:40;6.47;;;5.32;;
7359;SDS011;3720;48.274;7.796;2023-05-02T01:39:17;7.70;;;5.50;;
7359;SDS011;3720;48.274;7.796;2023-05-02T01:41:52;6.38;;;5.25;;
7359;SDS011;3720;48.274;7.796;2023-05-02T01:44:28;6.03;;;5.43;;
7359;SDS011;3720;48.274;7.796;2023-05-02T01:47:01;5.90;;;5.18;;
7359;SDS011;3720;48.274;7.796;2023-05-02T01:49:36;6.88;;;4.97;;
7359;SDS011;3720;48.274;7.796;2023-05-02T01:52:10;5.88;;;5.28;;
7359;SDS011;3720;48.274;7.796;2023-05-02T01:54:43;7.47;;;5.40;;
7359;SDS011;3720;48.274;7.796;2023-05-02T01:57:15;7.78;;;5.32;;
7359;SDS011;3720;48.274;7.796;2023-05-02T01:59:50;5.82;;;5.10;;
7359;SDS011;3720;48.274;7.796;2023-05-02T02:02:26;7.25;;;5.43;;
7359;SDS011;3720;48.274;7.796;2023-05-02T02:05:00;6.30;;;5.45;;
7359;SDS011;3720;48.274;7.796;2023-05-02T02:07:35;6.80;;;5.10;;
7359;SDS011;3720;48.274;7.796;2023-05-02T02:10:07;6.97;;;5.00;;
7359;SDS011;3720;48.274;7.796;2023-05-02T02:12:41;6.85;;;5.30;;
7359;SDS011;3720;48.274;7.796;2023-05-02T02:15:17;6.88;;;5.22;;
7359;SDS011;3720;48.274;7.796;2023-05-02T02:17:54;7.25;;;5.45;;
7359;SDS011;3720;48.274;7.796;2023-05-02T02:20:29;8.35;;;5.43;;
7359;SDS011;3720;48.274;7.796;2023-05-02T02:23:04;9.65;;;5.88;;
7359;SDS011;3720;48.274;7.796;2023-05-02T02:25:38;9.32;;;5.78;;
7359;SDS011;3720;48.274;7.796;2023-05-02T02:28:11;7.30;;;5.40;;
7359;SDS011;3720;48.274;7.796;2023-05-02T02:30:44;7.38;;;5.50;;
7359;SDS011;3720;48.274;7.796;2023-05-02T02:33:16;6.45;;;5.78;;
7359;SDS011;3720;48.274;7.796;2023-05-02T02:35:52;6.15;;;5.50;;
7359;SDS011;3720;48.274;7.796;2023-05-02T02:38:28;7.55;;;5.15;;
7359;SDS011;3720;48.274;7.796;2023-05-02T02:41:09;7.82;;;5.57;;
7359;SDS011;3720;48.274;7.796;2023-05-02T02:43:47;7.32;;;5.30;;
7359;SDS011;3720;48.274;7.796;2023-05-02T02:46:36;9.18;;;5.80;;
7359;SDS011;3720;48.274;7.796;2023-05-02T02:49:19;6.15;;;5.50;;
7359;SDS011;3720;48.274;7.796;2023-05-02T02:52:01;7.47;;;5.72;;
7359;SDS011;3720;48.274;7.796;2023-05-02T02:54:42;6.40;;;5.45;;
7359;SDS011;3720;48.274;7.796;2023-05-02T02:57:17;7.38;;;5.95;;
7359;SDS011;3720;48.274;7.796;2023-05-02T02:59:57;7.68;;;5.63;;
7359;SDS011;3720;48.274;7.796;2023-05-02T03:02:34;9.25;;;5.97;;
7359;SDS011;3720;48.274;7.796;2023-05-02T03:05:08;6.70;;;6.00;;
7359;SDS011;3720;48.274;7.796;2023-05-02T03:07:41;7.57;;;5.90;;
7359;SDS011;3720;48.274;7.796;2023-05-02T03:10:13;6.80;;;5.75;;
7359;SDS011;3720;48.274;7.796;2023-05-02T03:12:45;6.95;;;5.70;;
7359;SDS011;3720;48.274;7.796;2023-05-02T03:15:22;7.82;;;5.80;;
7359;SDS011;3720;48.274;7.796;2023-05-02T03:18:11;7.18;;;5.93;;
7359;SDS011;3720;48.274;7.796;2023-05-02T03:20:43;6.65;;;5.88;;
7359;SDS011;3720;48.274;7.796;2023-05-02T03:23:15;9.80;;;5.90;;
7359;SDS011;3720;48.274;7.796;2023-05-02T03:25:47;6.97;;;5.53;;
7359;SDS011;3720;48.274;7.796;2023-05-02T03:28:19;7.20;;;6.10;;
7359;SDS011;3720;48.274;7.796;2023-05-02T03:30:51;6.07;;;5.47;;
7359;SDS011;3720;48.274;7.796;2023-05-02T03:33:24;6.20;;;5.60;;
7359;SDS011;3720;48.274;7.796;2023-05-02T03:35:57;6.38;;;5.45;;
7359;SDS011;3720;48.274;7.796;2023-05-02T03:38:28;6.40;;;5.80;;
7359;SDS011;3720;48.274;7.796;2023-05-02T03:41:01;6.97;;;6.07;;
7359;SDS011;3720;48.274;7.796;2023-05-02T03:43:33;6.30;;;5.70;;
7359;SDS011;3720;48.274;7.796;2023-05-02T03:46:05;6.80;;;6.07;;
7359;SDS011;3720;48.274;7.796;2023-05-02T03:48:41;6.93;;;6.10;;
7359;SDS011;3720;48.274;7.796;2023-05-02T03:51:15;8.40;;;6.22;;
7359;SDS011;3720;48.274;7.796;2023-05-02T03:53:47;8.32;;;6.00;;
7359;SDS011;3720;48.274;7.796;2023-05-02T03:56:19;8.35;;;6.40;;
7359;SDS011;3720;48.274;7.796;2023-05-02T03:58:51;7.50;;;6.10;;
7359;SDS011;3720;48.274;7.796;2023-05-02T04:01:23;8.80;;;6.75;;
7359;SDS011;3720;48.274;7.796;2023-05-02T04:03:56;7.38;;;6.00;;
7359;SDS011;3720;48.274;7.796;2023-05-02T04:06:28;7.93;;;6.10;;
7359;SDS011;3720;48.274;7.796;2023-05-02T04:09:01;9.45;;;6.40;;
7359;SDS011;3720;48.274;7.796;2023-05-02T04:11:33;8.23;;;6.15;;
7359;SDS011;3720;48.274;7.796;2023-05-02T04:14:05;7.85;;;5.93;;
7359;SDS011;3720;48.274;7.796;2023-05-02T04:16:37;8.85;;;6.57;;
7359;SDS011;3720;48.274;7.796;2023-05-02T04:19:10;8.00;;;6.60;;
7359;SDS011;3720;48.274;7.796;2023-05-02T04:21:42;7.50;;;6.20;;
7359;SDS011;3720;48.274;7.796;2023-05-02T04:24:14;8.85;;;6.43;;
7359;SDS011;3720;48.274;7.796;2023-05-02T04:26:46;9.80;;;7.03;;
7359;SDS011;3720;48.274;7.796;2023-05-02T04:29:18;7.00;;;6.28;;
7359;SDS011;3720;48.274;7.796;2023-05-02T04:31:50;8.77;;;6.03;;
7359;SDS011;3720;48.274;7.796;2023-05-02T04:34:24;7.78;;;6.60;;
7359;SDS011;3720;48.274;7.796;2023-05-02T04:36:57;7.90;;;6.72;;
7359;SDS011;3720;48.274;7.796;2023-05-02T04:39:30;10.60;;;6.82;;
7359;SDS011;3720;48.274;7.796;2023-05-02T04:42:02;7.57;;;6.65;;
7359;SDS011;3720;48.274;7.796;2023-05-02T04:44:34;7.70;;;6.75;;
7359;SDS011;3720;48.274;7.796;2023-05-02T04:47:07;8.10;;;6.50;;
7359;SDS011;3720;48.274;7.796;2023-05-02T04:49:40;8.65;;;7.20;;
7359;SDS011;3720;48.274;7.796;2023-05-02T04:52:13;8.50;;;6.47;;
7359;SDS011;3720;48.274;7.796;2023-05-02T04:54:45;10.63;;;6.50;;
7359;SDS011;3720;48.274;7.796;2023-05-02T04:57:17;8.90;;;7.05;;
7359;SDS011;3720;48.274;7.796;2023-05-02T04:59:49;9.13;;;6.90;;
7359;SDS011;3720;48.274;7.796;2023-05-02T05:02:21;10.05;;;6.93;;
7359;SDS011;3720;48.274;7.796;2023-05-02T05:04:56;9.18;;;7.22;;
7359;SDS011;3720;48.274;7.796;2023-05-02T05:07:28;7.88;;;6.68;;
7359;SDS011;3720;48.274;7.796;2023-05-02T05:10:00;8.50;;;7.35;;
7359;SDS011;3720;48.274;7.796;2023-05-02T05:12:31;8.93;;;7.55;;
7359;SDS011;3720;48.274;7.796;2023-05-02T05:15:03;10.18;;;7.97;;
7359;SDS011;3720;48.274;7.796;2023-05-02T05:17:36;11.07;;;7.43;;
7359;SDS011;3720;48.274;7.796;2023-05-02T05:20:09;9.18;;;7.15;;
7359;SDS011;3720;48.274;7.796;2023-05-02T05:22:42;10.88;;;7.43;;
7359;SDS011;3720;48.274;7.796;2023-05-02T05:25:14;8.40;;;7.15;;
7359;SDS011;3720;48.274;7.796;2023-05-02T05:27:46;9.02;;;7.60;;
7359;SDS011;3720;48.274;7.796;2023-05-02T05:30:18;8.90;;;7.43;;
7359;SDS011;3720;48.274;7.796;2023-05-02T05:32:50;11.13;;;8.18;;
7359;SDS011;3720;48.274;7.796;2023-05-02T05:35:23;8.80;;;7.35;;
7359;SDS011;3720;48.274;7.796;2023-05-02T05:37:55;9.77;;;7.70;;
7359;SDS011;3720;48.274;7.796;2023-05-02T05:40:27;10.73;;;8.00;;
7359;SDS011;3720;48.274;7.796;2023-05-02T05:42:59;11.52;;;7.85;;
7359;SDS011;3720;48.274;7.796;2023-05-02T05:45:31;9.35;;;8.10;;
7359;SDS011;3720;48.274;7.796;2023-05-02T05:48:04;9.10;;;7.80;;
7359;SDS011;3720;48.274;7.796;2023-05-02T05:50:38;10.50;;;7.90;;
7359;SDS011;3720;48.274;7.796;2023-05-02T05:53:10;10.50;;;8.15;;
7359;SDS011;3720;48.274;7.796;2023-05-02T05:55:42;10.68;;;8.70;;
7359;SDS011;3720;48.274;7.796;2023-05-02T05:58:14;10.73;;;9.02;;
7359;SDS011;3720;48.274;7.796;2023-05-02T06:00:46;10.48;;;8.90;;
7359;SDS011;3720;48.274;7.796;2023-05-02T06:03:18;10.65;;;8.75;;
7359;SDS011;3720;48.274;7.796;2023-05-02T06:05:51;9.65;;;8.23;;
7359;SDS011;3720;48.274;7.796;2023-05-02T06:08:33;12.43;;;9.05;;
7359;SDS011;3720;48.274;7.796;2023-05-02T06:11:07;10.20;;;8.52;;
7359;SDS011;3720;48.274;7.796;2023-05-02T06:13:40;11.48;;;8.82;;
7359;SDS011;3720;48.274;7.796;2023-05-02T06:16:11;10.70;;;8.75;;
7359;SDS011;3720;48.274;7.796;2023-05-02T06:18:43;10.25;;;8.50;;
7359;SDS011;3720;48.274;7.796;2023-05-02T06:21:17;11.45;;;8.65;;
7359;SDS011;3720;48.274;7.796;2023-05-02T06:23:49;11.30;;;9.15;;
7359;SDS011;3720;48.274;7.796;2023-05-02T06:26:21;12.80;;;10.95;;
7359;SDS011;3720;48.274;7.796;2023-05-02T06:28:53;15.30;;;11.68;;
7359;SDS011;3720;48.274;7.796;2023-05-02T06:31:25;17.10;;;12.65;;
7359;SDS011;3720;48.274;7.796;2023-05-02T06:33:57;18.10;;;13.90;;
7359;SDS011;3720;48.274;7.796;2023-05-02T06:36:31;19.77;;;15.43;;
7359;SDS011;3720;48.274;7.796;2023-05-02T06:39:03;18.13;;;13.88;;
7359;SDS011;3720;48.274;7.796;2023-05-02T06:41:34;19.02;;;14.80;;
7359;SDS011;3720;48.274;7.796;2023-05-02T06:44:06;22.55;;;16.75;;
7359;SDS011;3720;48.274;7.796;2023-05-02T06:46:38;23.15;;;17.02;;
7359;SDS011;3720;48.274;7.796;2023-05-02T06:49:10;23.60;;;17.35;;
7359;SDS011;3720;48.274;7.796;2023-05-02T06:51:43;26.83;;;18.95;;
7359;SDS011;3720;48.274;7.796;2023-05-02T06:54:15;23.52;;;17.60;;
7359;SDS011;3720;48.274;7.796;2023-05-02T06:56:47;23.52;;;18.45;;
7359;SDS011;3720;48.274;7.796;2023-05-02T06:59:19;24.92;;;18.02;;
7359;SDS011;3720;48.274;7.796;2023-05-02T07:01:51;22.70;;;17.40;;
7359;SDS011;3720;48.274;7.796;2023-05-02T07:04:23;22.85;;;17.48;;
7359;SDS011;3720;48.274;7.796;2023-05-02T07:06:56;23.73;;;17.27;;
7359;SDS011;3720;48.274;7.796;2023-05-02T07:09:28;25.00;;;18.77;;
7359;SDS011;3720;48.274;7.796;2023-05-02T07:12:00;24.60;;;18.77;;
7359;SDS011;3720;48.274;7.796;2023-05-02T07:14:32;22.55;;;18.23;;
7359;SDS011;3720;48.274;7.796;2023-05-02T07:17:04;24.42;;;18.92;;
7359;SDS011;3720;48.274;7.796;2023-05-02T07:19:36;23.40;;;18.02;;
7359;SDS011;3720;48.274;7.796;2023-05-02T07:22:09;25.20;;;19.60;;
7359;SDS011;3720;48.274;7.796;2023-05-02T07:24:41;25.05;;;18.75;;
7359;SDS011;3720;48.274;7.796;2023-05-02T07:27:13;27.60;;;20.70;;
7359;SDS011;3720;48.274;7.796;2023-05-02T07:29:45;23.50;;;18.90;;
7359;SDS011;3720;48.274;7.796;2023-05-02T07:32:18;24.60;;;19.65;;
7359;SDS011;3720;48.274;7.796;2023-05-02T07:34:51;27.42;;;20.60;;
7359;SDS011;3720;48.274;7.796;2023-05-02T07:37:31;24.05;;;18.77;;
7359;SDS011;3720;48.274;7.796;2023-05-02T07:40:03;26.23;;;20.13;;
7359;SDS011;3720;48.274;7.796;2023-05-02T07:42:37;23.85;;;18.95;;
7359;SDS011;3720;48.274;7.796;2023-05-02T07:45:10;23.10;;;18.30;;
7359;SDS011;3720;48.274;7.796;2023-05-02T07:47:42;25.27;;;19.42;;
7359;SDS011;3720;48.274;7.796;2023-05-02T07:50:13;26.23;;;18.70;;
7359;SDS011;3720;48.274;7.796;2023-05-02T07:52:47;22.83;;;18.20;;
7359;SDS011;3720;48.274;7.796;2023-05-02T07:55:19;22.52;;;16.80;;
7359;SDS011;3720;48.274;7.796;2023-05-02T07:57:51;21.40;;;16.63;;
7359;SDS011;3720;48.274;7.796;2023-05-02T08:00:23;22.63;;;17.83;;
7359;SDS011;3720;48.274;7.796;2023-05-02T08:02:55;20.02;;;16.50;;
7359;SDS011;3720;48.274;7.796;2023-05-02T08:05:27;20.67;;;16.27;;
7359;SDS011;3720;48.274;7.796;2023-05-02T08:08:00;23.60;;;18.17;;
7359;SDS011;3720;48.274;7.796;2023-05-02T08:10:33;21.92;;;17.27;;
7359;SDS011;3720;48.274;7.796;2023-05-02T08:13:04;23.77;;;17.83;;
7359;SDS011;3720;48.274;7.796;2023-05-02T08:15:36;23.63;;;17.42;;
7359;SDS011;3720;48.274;7.796;2023-05-02T08:18:08;22.20;;;17.85;;
7359;SDS011;3720;48.274;7.796;2023-05-02T08:20:40;21.60;;;17.85;;
7359;SDS011;3720;48.274;7.796;2023-05-02T08:23:15;21.10;;;16.77;;
7359;SDS011;3720;48.274;7.796;2023-05-02T08:25:47;21.08;;;17.20;;
7359;SDS011;3720;48.274;7.796;2023-05-02T08:28:18;22.73;;;16.50;;
7359;SDS011;3720;48.274;7.796;2023-05-02T08:30:51;19.02;;;15.73;;
7359;SDS011;3720;48.274;7.796;2023-05-02T08:33:22;23.88;;;17.33;;
7359;SDS011;3720;48.274;7.796;2023-05-02T08:35:55;23.25;;;17.85;;
7359;SDS011;3720;48.274;7.796;2023-05-02T08:38:28;22.55;;;18.67;;
7359;SDS011;3720;48.274;7.796;2023-05-02T08:41:00;21.88;;;17.60;;
7359;SDS011;3720;48.274;7.796;2023-05-02T08:43:32;23.15;;;16.23;;
7359;SDS011;3720;48.274;7.796;2023-05-02T08:46:04;20.83;;;16.33;;
7359;SDS011;3720;48.274;7.796;2023-05-02T08:48:38;22.67;;;17.42;;
7359;SDS011;3720;48.274;7.796;2023-05-02T08:51:12;23.35;;;18.58;;
7359;SDS011;3720;48.274;7.796;2023-05-02T08:53:46;20.63;;;16.52;;
7359;SDS011;3720;48.274;7.796;2023-05-02T08:56:19;21.48;;;16.02;;
7359;SDS011;3720;48.274;7.796;2023-05-02T08:58:51;19.55;;;15.82;;
7359;SDS011;3720;48.274;7.796;2023-05-02T09:01:23;17.35;;;14.60;;
7359;SDS011;3720;48.274;7.796;2023-05-02T09:06:32;22.50;;;17.83;;
7359;SDS011;3720;48.274;7.796;2023-05-02T09:09:06;19.70;;;15.95;;
7359;SDS011;3720;48.274;7.796;2023-05-02T09:11:38;20.15;;;15.63;;
7359;SDS011;3720;48.274;7.796;2023-05-02T09:14:13;19.10;;;14.68;;
7359;SDS011;3720;48.274;7.796;2023-05-02T09:16:45;19.92;;;15.40;;
7359;SDS011;3720;48.274;7.796;2023-05-02T09:19:23;19.30;;;14.90;;
7359;SDS011;3720;48.274;7.796;2023-05-02T09:21:59;19.67;;;14.85;;
7359;SDS011;3720;48.274;7.796;2023-05-02T09:24:33;15.68;;;13.10;;
7359;SDS011;3720;48.274;7.796;2023-05-02T09:27:05;16.08;;;13.00;;
7359;SDS011;3720;48.274;7.796;2023-05-02T09:29:37;14.20;;;10.88;;
7359;SDS011;3720;48.274;7.796;2023-05-02T09:32:09;10.93;;;9.63;;
7359;SDS011;3720;48.274;7.796;2023-05-02T09:34:41;13.50;;;10.45;;
7359;SDS011;3720;48.274;7.796;2023-05-02T09:37:37;15.25;;;11.50;;
7359;SDS011;3720;48.274;7.796;2023-05-02T09:40:12;11.05;;;9.68;;
7359;SDS011;3720;48.274;7.796;2023-05-02T09:42:44;11.73;;;10.13;;
7359;SDS011;3720;48.274;7.796;2023-05-02T09:45:19;15.00;;;11.63;;
7359;SDS011;3720;48.274;7.796;2023-05-02T09:47:52;15.32;;;12.48;;
7359;SDS011;3720;48.274;7.796;2023-05-02T09:50:33;14.18;;;12.07;;
7359;SDS011;3720;48.274;7.796;2023-05-02T09:53:08;17.58;;;12.00;;
7359;SDS011;3720;48.274;7.796;2023-05-02T09:55:42;16.48;;;13.27;;
7359;SDS011;3720;48.274;7.796;2023-05-02T09:58:20;16.10;;;12.23;;
7359;SDS011;3720;48.274;7.796;2023-05-02T10:00:54;17.90;;;13.35;;
7359;SDS011;3720;48.274;7.796;2023-05-02T10:03:27;16.55;;;12.98;;
7359;SDS011;3720;48.274;7.796;2023-05-02T10:06:01;18.17;;;14.73;;
7359;SDS011;3720;48.274;7.796;2023-05-02T10:08:34;20.70;;;14.13;;
7359;SDS011;3720;48.274;7.796;2023-05-02T10:11:08;20.02;;;15.68;;
7359;SDS011;3720;48.274;7.796;2023-05-02T10:13:42;21.08;;;15.77;;
7359;SDS011;3720;48.274;7.796;2023-05-02T10:16:15;21.13;;;16.42;;
7359;SDS011;3720;48.274;7.796;2023-05-02T10:18:57;22.75;;;16.63;;
7359;SDS011;3720;48.274;7.796;2023-05-02T10:21:33;23.50;;;17.33;;
7359;SDS011;3720;48.274;7.796;2023-05-02T10:24:07;22.45;;;17.33;;
7359;SDS011;3720;48.274;7.796;2023-05-02T10:26:41;21.73;;;16.88;;
7359;SDS011;3720;48.274;7.796;2023-05-02T10:29:14;26.98;;;20.25;;
7359;SDS011;3720;48.274;7.796;2023-05-02T10:31:46;28.20;;;20.60;;
7359;SDS011;3720;48.274;7.796;2023-05-02T10:34:20;23.88;;;18.60;;
7359;SDS011;3720;48.274;7.796;2023-05-02T10:36:53;22.40;;;17.13;;
7359;SDS011;3720;48.274;7.796;2023-05-02T10:42:03;25.55;;;18.63;;
7359;SDS011;3720;48.274;7.796;2023-05-02T10:44:38;22.75;;;17.30;;
7359;SDS011;3720;48.274;7.796;2023-05-02T10:47:18;20.63;;;16.95;;
7359;SDS011;3720;48.274;7.796;2023-05-02T10:49:51;20.60;;;16.00;;
7359;SDS011;3720;48.274;7.796;2023-05-02T10:52:25;18.65;;;15.73;;
7359;SDS011;3720;48.274;7.796;2023-05-02T10:55:13;19.02;;;15.52;;
7359;SDS011;3720;48.274;7.796;2023-05-02T11:04:04;16.55;;;13.70;;
7359;SDS011;3720;48.274;7.796;2023-05-02T11:09:42;17.38;;;13.98;;
7359;SDS011;3720;48.274;7.796;2023-05-02T11:15:52;18.45;;;14.00;;
7359;SDS011;3720;48.274;7.796;2023-05-02T11:18:26;23.73;;;16.05;;
7359;SDS011;3720;48.274;7.796;2023-05-02T11:21:25;16.45;;;12.90;;
7359;SDS011;3720;48.274;7.796;2023-05-02T11:30:18;19.15;;;14.73;;
7359;SDS011;3720;48.274;7.796;2023-05-02T11:33:12;13.90;;;11.48;;
7359;SDS011;3720;48.274;7.796;2023-05-02T11:35:50;15.48;;;12.82;;
7359;SDS011;3720;48.274;7.796;2023-05-02T11:38:22;14.43;;;11.93;;
7359;SDS011;3720;48.274;7.796;2023-05-02T11:40:55;13.25;;;10.02;;
7359;SDS011;3720;48.274;7.796;2023-05-02T11:43:29;12.05;;;9.63;;
7359;SDS011;3720;48.274;7.796;2023-05-02T11:46:01;13.18;;;10.90;;
7359;SDS011;3720;48.274;7.796;2023-05-02T11:48:34;15.93;;;12.52;;
7359;SDS011;3720;48.274;7.796;2023-05-02T11:51:08;15.23;;;11.70;;
7359;SDS011;3720;48.274;7.796;2023-05-02T11:53:40;14.43;;;11.27;;
7359;SDS011;3720;48.274;7.796;2023-05-02T11:56:12;13.63;;;10.90;;
7359;SDS011;3720;48.274;7.796;2023-05-02T11:58:44;14.55;;;10.98;;
7359;SDS011;3720;48.274;7.796;2023-05-02T12:01:28;16.60;;;12.27;;
7359;SDS011;3720;48.274;7.796;2023-05-02T12:04:01;16.08;;;12.55;;
7359;SDS011;3720;48.274;7.796;2023-05-02T12:06:36;14.07;;;10.75;;
7359;SDS011;3720;48.274;7.796;2023-05-02T12:09:08;18.75;;;13.40;;
7359;SDS011;3720;48.274;7.796;2023-05-02T12:11:45;15.23;;;11.25;;
7359;SDS011;3720;48.274;7.796;2023-05-02T12:14:36;16.50;;;12.82;;
7359;SDS011;3720;48.274;7.796;2023-05-02T12:17:08;12.10;;;9.82;;
7359;SDS011;3720;48.274;7.796;2023-05-02T12:19:40;12.65;;;10.23;;
7359;SDS011;3720;48.274;7.796;2023-05-02T12:22:14;8.70;;;7.55;;
7359;SDS011;3720;48.274;7.796;2023-05-02T12:24:47;12.27;;;9.95;;
7359;SDS011;3720;48.274;7.796;2023-05-02T12:27:19;14.38;;;11.00;;
7359;SDS011;3720;48.274;7.796;2023-05-02T12:29:52;11.35;;;9.25;;
7359;SDS011;3720;48.274;7.796;2023-05-02T12:32:27;9.82;;;8.10;;
7359;SDS011;3720;48.274;7.796;2023-05-02T12:35:01;11.25;;;9.43;;
7359;SDS011;3720;48.274;7.796;2023-05-02T12:37:35;9.98;;;8.40;;
7359;SDS011;3720;48.274;7.796;2023-05-02T12:40:13;9.93;;;8.07;;
7359;SDS011;3720;48.274;7.796;2023-05-02T12:42:59;11.98;;;8.05;;
7359;SDS011;3720;48.274;7.796;2023-05-02T12:45:33;10.20;;;8.98;;
7359;SDS011;3720;48.274;7.796;2023-05-02T12:48:17;11.02;;;8.40;;
7359;SDS011;3720;48.274;7.796;2023-05-02T12:50:54;11.38;;;9.40;;
7359;SDS011;3720;48.274;7.796;2023-05-02T12:53:40;10.85;;;8.40;;
7359;SDS011;3720;48.274;7.796;2023-05-02T12:56:13;8.80;;;6.88;;
7359;SDS011;3720;48.274;7.796;2023-05-02T12:58:45;10.35;;;8.10;;
7359;SDS011;3720;48.274;7.796;2023-05-02T13:01:18;7.65;;;6.60;;
7359;SDS011;3720;48.274;7.796;2023-05-02T13:03:50;8.77;;;7.00;;
7359;SDS011;3720;48.274;7.796;2023-05-02T13:06:22;12.02;;;8.68;;
7359;SDS011;3720;48.274;7.796;2023-05-02T13:08:55;10.00;;;7.93;;
7359;SDS011;3720;48.274;7.796;2023-05-02T13:11:27;9.48;;;8.20;;
7359;SDS011;3720;48.274;7.796;2023-05-02T13:13:59;11.43;;;9.80;;
7359;SDS011;3720;48.274;7.796;2023-05-02T13:16:34;11.18;;;8.55;;
7359;SDS011;3720;48.274;7.796;2023-05-02T13:19:06;13.93;;;9.70;;
7359;SDS011;3720;48.274;7.796;2023-05-02T13:21:38;9.20;;;7.95;;
7359;SDS011;3720;48.274;7.796;2023-05-02T13:24:11;10.25;;;8.13;;
7359;SDS011;3720;48.274;7.796;2023-05-02T13:26:44;9.30;;;8.05;;
7359;SDS011;3720;48.274;7.796;2023-05-02T13:29:16;10.23;;;8.25;;
7359;SDS011;3720;48.274;7.796;2023-05-02T13:31:48;8.60;;;7.70;;
7359;SDS011;3720;48.274;7.796;2023-05-02T13:34:20;10.35;;;8.60;;
7359;SDS011;3720;48.274;7.796;2023-05-02T13:36:52;7.53;;;6.55;;
7359;SDS011;3720;48.274;7.796;2023-05-02T13:39:25;8.32;;;7.43;;
7359;SDS011;3720;48.274;7.796;2023-05-02T13:41:57;9.20;;;7.18;;
7359;SDS011;3720;48.274;7.796;2023-05-02T13:44:31;8.63;;;6.25;;
7359;SDS011;3720;48.274;7.796;2023-05-02T13:47:03;9.10;;;6.55;;
7359;SDS011;3720;48.274;7.796;2023-05-02T13:49:35;8.80;;;7.82;;
7359;SDS011;3720;48.274;7.796;2023-05-02T13:52:07;9.18;;;7.43;;
7359;SDS011;3720;48.274;7.796;2023-05-02T13:54:40;9.60;;;8.27;;
7359;SDS011;3720;48.274;7.796;2023-05-02T13:57:12;12.75;;;10.77;;
7359;SDS011;3720;48.274;7.796;2023-05-02T13:59:44;14.68;;;12.05;;
7359;SDS011;3720;48.274;7.796;2023-05-02T14:02:16;14.52;;;11.30;;
7359;SDS011;3720;48.274;7.796;2023-05-02T14:04:48;12.35;;;10.00;;
7359;SDS011;3720;48.274;7.796;2023-05-02T14:07:20;11.77;;;9.75;;
7359;SDS011;3720;48.274;7.796;2023-05-02T14:09:54;13.48;;;12.02;;
7359;SDS011;3720;48.274;7.796;2023-05-02T14:12:26;13.38;;;11.43;;
7359;SDS011;3720;48.274;7.796;2023-05-02T14:14:58;16.17;;;12.40;;
7359;SDS011;3720;48.274;7.796;2023-05-02T14:17:30;16.17;;;13.38;;
7359;SDS011;3720;48.274;7.796;2023-05-02T14:20:02;20.00;;;15.27;;
7359;SDS011;3720;48.274;7.796;2023-05-02T14:22:34;18.17;;;15.38;;
7359;SDS011;3720;48.274;7.796;2023-05-02T14:25:08;17.85;;;14.32;;
7359;SDS011;3720;48.274;7.796;2023-05-02T14:27:40;18.13;;;14.02;;
7359;SDS011;3720;48.274;7.796;2023-05-02T14:30:12;16.67;;;14.10;;
7359;SDS011;3720;48.274;7.796;2023-05-02T14:32:45;15.23;;;13.23;;
7359;SDS011;3720;48.274;7.796;2023-05-02T14:35:16;17.33;;;13.57;;
7359;SDS011;3720;48.274;7.796;2023-05-02T14:37:49;22.48;;;17.55;;
7359;SDS011;3720;48.274;7.796;2023-05-02T14:40:22;15.07;;;12.68;;
7359;SDS011;3720;48.274;7.796;2023-05-02T14:42:54;13.02;;;11.63;;
7359;SDS011;3720;48.274;7.796;2023-05-02T14:45:26;14.00;;;11.98;;
7359;SDS011;3720;48.274;7.796;2023-05-02T14:47:57;14.43;;;10.77;;
7359;SDS011;3720;48.274;7.796;2023-05-02T14:50:29;11.90;;;9.55;;
7359;SDS011;3720;48.274;7.796;2023-05-02T14:53:01;14.52;;;11.75;;
7359;SDS011;3720;48.274;7.796;2023-05-02T14:55:36;13.10;;;11.00;;
7359;SDS011;3720;48.274;7.796;2023-05-02T14:58:09;13.45;;;10.75;;
7359;SDS011;3720;48.274;7.796;2023-05-02T15:00:40;11.95;;;10.60;;
7359;SDS011;3720;48.274;7.796;2023-05-02T15:03:12;11.32;;;9.48;;
7359;SDS011;3720;48.274;7.796;2023-05-02T15:05:44;12.60;;;10.30;;
7359;SDS011;3720;48.274;7.796;2023-05-02T15:08:16;12.18;;;9.43;;
7359;SDS011;3720;48.274;7.796;2023-05-02T15:10:50;11.23;;;8.77;;
7359;SDS011;3720;48.274;7.796;2023-05-02T15:13:23;11.85;;;8.70;;
7359;SDS011;3720;48.274;7.796;2023-05-02T15:15:55;10.63;;;8.32;;
7359;SDS011;3720;48.274;7.796;2023-05-02T15:18:27;13.88;;;11.60;;
7359;SDS011;3720;48.274;7.796;2023-05-02T15:20:59;13.27;;;10.77;;
7359;SDS011;3720;48.274;7.796;2023-05-02T15:23:31;10.52;;;8.82;;
7359;SDS011;3720;48.274;7.796;2023-05-02T15:26:05;12.57;;;9.90;;
7359;SDS011;3720;48.274;7.796;2023-05-02T15:28:37;10.90;;;8.93;;
7359;SDS011;3720;48.274;7.796;2023-05-02T15:31:09;11.65;;;8.07;;
7359;SDS011;3720;48.274;7.796;2023-05-02T15:33:41;9.45;;;8.18;;
7359;SDS011;3720;48.274;7.796;2023-05-02T15:36:14;9.10;;;7.43;;
7359;SDS011;3720;48.274;7.796;2023-05-02T15:38:46;10.43;;;8.38;;
7359;SDS011;3720;48.274;7.796;2023-05-02T15:41:19;8.88;;;7.97;;
7359;SDS011;3720;48.274;7.796;2023-05-02T15:43:51;9.75;;;7.80;;
7359;SDS011;3720;48.274;7.796;2023-05-02T15:46:23;9.82;;;8.27;;
7359;SDS011;3720;48.274;7.796;2023-05-02T15:48:56;11.13;;;8.73;;
7359;SDS011;3720;48.274;7.796;2023-05-02T15:51:28;8.88;;;7.50;;
7359;SDS011;3720;48.274;7.796;2023-05-02T15:54:00;9.25;;;7.03;;
7359;SDS011;3720;48.274;7.796;2023-05-02T15:56:33;8.23;;;7.40;;
7359;SDS011;3720;48.274;7.796;2023-05-02T15:59:05;8.75;;;6.88;;
7359;SDS011;3720;48.274;7.796;2023-05-02T16:01:37;7.07;;;5.90;;
7359;SDS011;3720;48.274;7.796;2023-05-02T16:04:09;7.15;;;5.80;;
7359;SDS011;3720;48.274;7.796;2023-05-02T16:06:42;6.25;;;4.68;;